sensor_id;sensor_type;location;lat;lon;timestamp;temperature;humidity
17370;DHT22;8802;52.402;4.920;2023-12-29T00:01:37;13.30;99.90
17370;DHT22;8802;52.402;4.920;2023-12-29T00:04:04;13.30;99.90
17370;DHT22;8802;52.402;4.920;2023-12-29T00:06:31;13.30;99.90
17370;DHT22;8802;52.402;4.920;2023-12-29T00:08:58;13.30;99.90
17370;DHT22;8802;52.402;4.920;2023-12-29T00:11:25;13.30;99.90
17370;DHT22;8802;52.402;4.920;2023-12-29T00:13:52;13.30;99.90
17370;DHT22;8802;52.402;4.920;2023-12-29T00:16:20;13.30;99.90
17370;DHT22;8802;52.402;4.920;2023-12-29T00:18:47;13.40;99.90
17370;DHT22;8802;52.402;4.920;2023-12-29T00:21:14;13.40;99.90
17370;DHT22;8802;52.402;4.920;2023-12-29T00:23:41;13.40;99.90
17370;DHT22;8802;52.402;4.920;2023-12-29T00:26:08;13.40;99.90
17370;DHT22;8802;52.402;4.920;2023-12-29T00:28:35;13.40;99.90
17370;DHT22;8802;52.402;4.920;2023-12-29T00:31:05;13.50;99.90
17370;DHT22;8802;52.402;4.920;2023-12-29T00:33:34;13.50;99.90
17370;DHT22;8802;52.402;4.920;2023-12-29T00:36:01;13.50;99.90
17370;DHT22;8802;52.402;4.920;2023-12-29T00:38:28;13.50;99.90
17370;DHT22;8802;52.402;4.920;2023-12-29T00:40:54;13.50;99.90
17370;DHT22;8802;52.402;4.920;2023-12-29T00:43:21;13.60;99.90
17370;DHT22;8802;52.402;4.920;2023-12-29T00:45:49;13.60;99.90
17370;DHT22;8802;52.402;4.920;2023-12-29T00:48:16;13.60;99.90
17370;DHT22;8802;52.402;4.920;2023-12-29T00:50:44;13.60;99.90
17370;DHT22;8802;52.402;4.920;2023-12-29T00:53:11;13.60;99.90
17370;DHT22;8802;52.402;4.920;2023-12-29T00:55:38;13.60;99.90
17370;DHT22;8802;52.402;4.920;2023-12-29T00:58:05;13.40;99.90
17370;DHT22;8802;52.402;4.920;2023-12-29T01:00:32;13.60;99.90
17370;DHT22;8802;52.402;4.920;2023-12-29T01:02:59;13.60;99.90
17370;DHT22;8802;52.402;4.920;2023-12-29T01:05:26;13.60;99.90
17370;DHT22;8802;52.402;4.920;2023-12-29T01:07:54;13.50;99.90
17370;DHT22;8802;52.402;4.920;2023-12-29T01:10:21;13.50;99.90
17370;DHT22;8802;52.402;4.920;2023-12-29T01:12:48;13.50;99.90
17370;DHT22;8802;52.402;4.920;2023-12-29T01:15:15;13.50;99.90
17370;DHT22;8802;52.402;4.920;2023-12-29T01:17:43;13.50;99.90
17370;DHT22;8802;52.402;4.920;2023-12-29T01:20:10;13.50;99.90
17370;DHT22;8802;52.402;4.920;2023-12-29T01:22:37;13.50;99.90
17370;DHT22;8802;52.402;4.920;2023-12-29T01:25:05;13.50;99.90
17370;DHT22;8802;52.402;4.920;2023-12-29T01:27:32;13.50;99.90
17370;DHT22;8802;52.402;4.920;2023-12-29T01:29:59;13.50;99.90
17370;DHT22;8802;52.402;4.920;2023-12-29T01:32:26;13.50;99.90
17370;DHT22;8802;52.402;4.920;2023-12-29T01:34:53;13.50;99.90
17370;DHT22;8802;52.402;4.920;2023-12-29T01:37:20;13.60;99.90
17370;DHT22;8802;52.402;4.920;2023-12-29T01:39:47;13.50;99.90
17370;DHT22;8802;52.402;4.920;2023-12-29T01:42:15;13.50;99.90
17370;DHT22;8802;52.402;4.920;2023-12-29T01:44:42;13.50;99.90
17370;DHT22;8802;52.402;4.920;2023-12-29T01:47:13;13.60;99.90
17370;DHT22;8802;52.402;4.920;2023-12-29T01:49:40;13.60;99.90
17370;DHT22;8802;52.402;4.920;2023-12-29T01:52:07;13.60;99.90
17370;DHT22;8802;52.402;4.920;2023-12-29T01:54:35;13.60;99.90
17370;DHT22;8802;52.402;4.920;2023-12-29T01:57:04;13.60;99.90
17370;DHT22;8802;52.402;4.920;2023-12-29T01:59:31;13.60;99.90
17370;DHT22;8802;52.402;4.920;2023-12-29T02:01:58;13.70;99.90
17370;DHT22;8802;52.402;4.920;2023-12-29T02:04:26;13.70;99.90
17370;DHT22;8802;52.402;4.920;2023-12-29T02:06:53;13.70;99.90
17370;DHT22;8802;52.402;4.920;2023-12-29T02:09:20;13.70;99.90
17370;DHT22;8802;52.402;4.920;2023-12-29T02:11:48;13.70;99.90
17370;DHT22;8802;52.402;4.920;2023-12-29T02:14:15;13.70;99.90
17370;DHT22;8802;52.402;4.920;2023-12-29T02:16:46;13.70;99.90
17370;DHT22;8802;52.402;4.920;2023-12-29T02:19:25;13.80;99.90
17370;DHT22;8802;52.402;4.920;2023-12-29T02:21:55;13.80;99.90
17370;DHT22;8802;52.402;4.920;2023-12-29T02:24:22;13.80;99.90
17370;DHT22;8802;52.402;4.920;2023-12-29T02:26:53;13.80;99.90
17370;DHT22;8802;52.402;4.920;2023-12-29T02:29:25;13.80;99.90
17370;DHT22;8802;52.402;4.920;2023-12-29T02:31:54;13.80;99.90
17370;DHT22;8802;52.402;4.920;2023-12-29T02:34:25;13.80;99.90
17370;DHT22;8802;52.402;4.920;2023-12-29T02:36:52;13.80;99.90
17370;DHT22;8802;52.402;4.920;2023-12-29T02:39:20;13.90;99.90
17370;DHT22;8802;52.402;4.920;2023-12-29T02:41:47;13.90;99.90
17370;DHT22;8802;52.402;4.920;2023-12-29T02:44:15;13.90;99.90
17370;DHT22;8802;52.402;4.920;2023-12-29T02:46:42;13.90;99.90
17370;DHT22;8802;52.402;4.920;2023-12-29T02:49:09;13.90;99.90
17370;DHT22;8802;52.402;4.920;2023-12-29T02:51:38;13.90;99.90
17370;DHT22;8802;52.402;4.920;2023-12-29T02:54:05;13.90;99.90
17370;DHT22;8802;52.402;4.920;2023-12-29T02:56:33;13.90;99.90
17370;DHT22;8802;52.402;4.920;2023-12-29T02:59:00;13.90;99.90
17370;DHT22;8802;52.402;4.920;2023-12-29T03:01:28;13.90;99.90
17370;DHT22;8802;52.402;4.920;2023-12-29T03:03:55;13.90;99.90
17370;DHT22;8802;52.402;4.920;2023-12-29T03:06:22;13.90;99.90
17370;DHT22;8802;52.402;4.920;2023-12-29T03:08:48;13.90;99.90
17370;DHT22;8802;52.402;4.920;2023-12-29T03:11:15;13.90;99.90
17370;DHT22;8802;52.402;4.920;2023-12-29T03:13:42;13.90;99.90
17370;DHT22;8802;52.402;4.920;2023-12-29T03:16:09;13.90;99.90
17370;DHT22;8802;52.402;4.920;2023-12-29T03:18:37;13.90;99.90
17370;DHT22;8802;52.402;4.920;2023-12-29T03:21:06;13.80;99.90
17370;DHT22;8802;52.402;4.920;2023-12-29T03:23:33;13.80;99.90
17370;DHT22;8802;52.402;4.920;2023-12-29T03:26:00;13.80;99.90
17370;DHT22;8802;52.402;4.920;2023-12-29T03:28:28;13.80;99.90
17370;DHT22;8802;52.402;4.920;2023-12-29T03:30:55;13.80;99.90
17370;DHT22;8802;52.402;4.920;2023-12-29T03:33:22;13.80;99.90
17370;DHT22;8802;52.402;4.920;2023-12-29T03:35:50;13.80;99.90
17370;DHT22;8802;52.402;4.920;2023-12-29T03:38:17;13.80;99.90
17370;DHT22;8802;52.402;4.920;2023-12-29T03:40:43;13.80;99.90
17370;DHT22;8802;52.402;4.920;2023-12-29T03:43:10;13.80;99.90
17370;DHT22;8802;52.402;4.920;2023-12-29T03:45:37;13.70;99.90
17370;DHT22;8802;52.402;4.920;2023-12-29T03:48:05;13.80;99.90
17370;DHT22;8802;52.402;4.920;2023-12-29T03:50:33;13.70;99.90
17370;DHT22;8802;52.402;4.920;2023-12-29T03:53:01;13.70;99.90
17370;DHT22;8802;52.402;4.920;2023-12-29T03:55:28;13.70;99.90
17370;DHT22;8802;52.402;4.920;2023-12-29T03:57:55;13.70;99.90
17370;DHT22;8802;52.402;4.920;2023-12-29T04:00:22;13.70;99.90
17370;DHT22;8802;52.402;4.920;2023-12-29T04:02:49;13.70;99.90
17370;DHT22;8802;52.402;4.920;2023-12-29T04:05:16;13.70;99.90
17370;DHT22;8802;52.402;4.920;2023-12-29T04:07:42;13.70;99.90
17370;DHT22;8802;52.402;4.920;2023-12-29T04:10:11;13.70;99.90
17370;DHT22;8802;52.402;4.920;2023-12-29T04:12:37;13.70;99.90
17370;DHT22;8802;52.402;4.920;2023-12-29T04:15:05;13.60;99.90
17370;DHT22;8802;52.402;4.920;2023-12-29T04:17:32;13.60;99.90
17370;DHT22;8802;52.402;4.920;2023-12-29T04:19:59;13.60;99.90
17370;DHT22;8802;52.402;4.920;2023-12-29T04:22:26;13.60;99.90
17370;DHT22;8802;52.402;4.920;2023-12-29T04:24:53;13.60;99.90
17370;DHT22;8802;52.402;4.920;2023-12-29T04:27:21;13.60;99.90
17370;DHT22;8802;52.402;4.920;2023-12-29T04:29:48;13.60;99.90
17370;DHT22;8802;52.402;4.920;2023-12-29T04:32:15;13.60;99.90
17370;DHT22;8802;52.402;4.920;2023-12-29T04:34:42;13.60;99.90
17370;DHT22;8802;52.402;4.920;2023-12-29T04:37:09;13.60;99.90
17370;DHT22;8802;52.402;4.920;2023-12-29T04:39:37;13.60;99.90
17370;DHT22;8802;52.402;4.920;2023-12-29T04:42:04;13.60;99.90
17370;DHT22;8802;52.402;4.920;2023-12-29T04:44:32;13.60;99.90
17370;DHT22;8802;52.402;4.920;2023-12-29T04:46:59;13.60;99.90
17370;DHT22;8802;52.402;4.920;2023-12-29T04:49:26;13.60;99.90
17370;DHT22;8802;52.402;4.920;2023-12-29T04:51:53;13.60;99.90
17370;DHT22;8802;52.402;4.920;2023-12-29T04:54:19;13.60;99.90
17370;DHT22;8802;52.402;4.920;2023-12-29T04:56:46;13.60;99.90
17370;DHT22;8802;52.402;4.920;2023-12-29T04:59:13;13.60;99.90
17370;DHT22;8802;52.402;4.920;2023-12-29T05:01:41;13.70;99.90
17370;DHT22;8802;52.402;4.920;2023-12-29T05:04:08;13.70;99.90
17370;DHT22;8802;52.402;4.920;2023-12-29T05:06:35;13.70;99.90
17370;DHT22;8802;52.402;4.920;2023-12-29T05:09:02;13.70;99.90
17370;DHT22;8802;52.402;4.920;2023-12-29T05:11:29;13.70;99.90
17370;DHT22;8802;52.402;4.920;2023-12-29T05:13:56;13.70;99.90
17370;DHT22;8802;52.402;4.920;2023-12-29T05:16:23;13.70;99.90
17370;DHT22;8802;52.402;4.920;2023-12-29T05:18:51;13.70;99.90
17370;DHT22;8802;52.402;4.920;2023-12-29T05:21:18;13.70;99.90
17370;DHT22;8802;52.402;4.920;2023-12-29T05:23:46;13.70;99.90
17370;DHT22;8802;52.402;4.920;2023-12-29T05:26:14;13.70;99.90
17370;DHT22;8802;52.402;4.920;2023-12-29T05:28:41;13.70;99.90
17370;DHT22;8802;52.402;4.920;2023-12-29T05:31:08;13.70;99.90
17370;DHT22;8802;52.402;4.920;2023-12-29T05:33:35;13.70;99.90
17370;DHT22;8802;52.402;4.920;2023-12-29T05:36:07;13.70;99.90
17370;DHT22;8802;52.402;4.920;2023-12-29T05:38:35;13.70;99.90
17370;DHT22;8802;52.402;4.920;2023-12-29T05:41:02;13.70;99.90
17370;DHT22;8802;52.402;4.920;2023-12-29T05:43:31;13.70;99.90
17370;DHT22;8802;52.402;4.920;2023-12-29T05:45:59;13.70;99.90
17370;DHT22;8802;52.402;4.920;2023-12-29T05:48:26;13.70;99.90
17370;DHT22;8802;52.402;4.920;2023-12-29T05:50:53;13.70;99.90
17370;DHT22;8802;52.402;4.920;2023-12-29T05:53:22;13.70;99.90
17370;DHT22;8802;52.402;4.920;2023-12-29T05:55:49;13.70;99.90
17370;DHT22;8802;52.402;4.920;2023-12-29T05:58:15;13.70;99.90
17370;DHT22;8802;52.402;4.920;2023-12-29T06:00:42;13.70;99.90
17370;DHT22;8802;52.402;4.920;2023-12-29T06:03:10;13.70;99.90
17370;DHT22;8802;52.402;4.920;2023-12-29T06:05:37;13.70;99.90
17370;DHT22;8802;52.402;4.920;2023-12-29T06:08:05;13.70;99.90
17370;DHT22;8802;52.402;4.920;2023-12-29T06:10:35;13.70;99.90
17370;DHT22;8802;52.402;4.920;2023-12-29T06:13:02;13.70;99.90
17370;DHT22;8802;52.402;4.920;2023-12-29T06:15:30;13.70;99.90
17370;DHT22;8802;52.402;4.920;2023-12-29T06:17:57;13.70;99.90
17370;DHT22;8802;52.402;4.920;2023-12-29T06:20:24;13.70;99.90
17370;DHT22;8802;52.402;4.920;2023-12-29T06:22:50;13.70;99.90
17370;DHT22;8802;52.402;4.920;2023-12-29T06:25:18;13.70;99.90
17370;DHT22;8802;52.402;4.920;2023-12-29T06:27:46;13.70;99.90
17370;DHT22;8802;52.402;4.920;2023-12-29T06:30:14;13.70;99.90
17370;DHT22;8802;52.402;4.920;2023-12-29T06:32:41;13.70;99.90
17370;DHT22;8802;52.402;4.920;2023-12-29T06:35:08;13.70;99.90
17370;DHT22;8802;52.402;4.920;2023-12-29T06:37:36;13.80;99.90
17370;DHT22;8802;52.402;4.920;2023-12-29T06:40:04;13.80;99.90
17370;DHT22;8802;52.402;4.920;2023-12-29T06:42:31;13.80;99.90
17370;DHT22;8802;52.402;4.920;2023-12-29T06:44:59;13.80;99.90
17370;DHT22;8802;52.402;4.920;2023-12-29T06:47:27;13.80;99.90
17370;DHT22;8802;52.402;4.920;2023-12-29T06:49:53;13.80;99.90
17370;DHT22;8802;52.402;4.920;2023-12-29T06:52:20;13.80;99.90
17370;DHT22;8802;52.402;4.920;2023-12-29T06:54:47;13.80;99.90
17370;DHT22;8802;52.402;4.920;2023-12-29T06:57:14;13.80;99.90
17370;DHT22;8802;52.402;4.920;2023-12-29T06:59:42;13.80;99.90
17370;DHT22;8802;52.402;4.920;2023-12-29T07:02:10;13.80;99.90
17370;DHT22;8802;52.402;4.920;2023-12-29T07:04:41;13.80;99.90
17370;DHT22;8802;52.402;4.920;2023-12-29T07:07:08;13.80;99.90
17370;DHT22;8802;52.402;4.920;2023-12-29T07:09:38;13.80;99.90
17370;DHT22;8802;52.402;4.920;2023-12-29T07:12:05;13.90;99.90
17370;DHT22;8802;52.402;4.920;2023-12-29T07:14:31;13.90;99.90
17370;DHT22;8802;52.402;4.920;2023-12-29T07:16:59;13.90;99.90
17370;DHT22;8802;52.402;4.920;2023-12-29T07:19:27;13.90;99.90
17370;DHT22;8802;52.402;4.920;2023-12-29T07:22:02;13.90;99.90
17370;DHT22;8802;52.402;4.920;2023-12-29T07:24:30;13.90;99.90
17370;DHT22;8802;52.402;4.920;2023-12-29T07:26:57;13.90;99.90
17370;DHT22;8802;52.402;4.920;2023-12-29T07:29:24;13.90;99.90
17370;DHT22;8802;52.402;4.920;2023-12-29T07:31:51;13.90;99.90
17370;DHT22;8802;52.402;4.920;2023-12-29T07:34:18;13.90;99.90
17370;DHT22;8802;52.402;4.920;2023-12-29T07:36:46;13.90;99.90
17370;DHT22;8802;52.402;4.920;2023-12-29T07:39:13;13.90;99.90
17370;DHT22;8802;52.402;4.920;2023-12-29T07:41:40;13.90;99.90
17370;DHT22;8802;52.402;4.920;2023-12-29T07:44:07;13.90;99.90
17370;DHT22;8802;52.402;4.920;2023-12-29T07:46:34;13.90;99.90
17370;DHT22;8802;52.402;4.920;2023-12-29T07:49:01;13.90;99.90
17370;DHT22;8802;52.402;4.920;2023-12-29T07:51:29;13.90;99.90
17370;DHT22;8802;52.402;4.920;2023-12-29T07:53:57;13.90;99.90
17370;DHT22;8802;52.402;4.920;2023-12-29T07:56:24;13.90;99.90
17370;DHT22;8802;52.402;4.920;2023-12-29T07:58:51;13.90;99.90
17370;DHT22;8802;52.402;4.920;2023-12-29T08:01:18;13.90;99.90
17370;DHT22;8802;52.402;4.920;2023-12-29T08:03:44;14.00;99.90
17370;DHT22;8802;52.402;4.920;2023-12-29T08:06:12;14.00;99.90
17370;DHT22;8802;52.402;4.920;2023-12-29T08:08:39;14.00;99.90
17370;DHT22;8802;52.402;4.920;2023-12-29T08:11:12;14.00;99.90
17370;DHT22;8802;52.402;4.920;2023-12-29T08:13:39;14.00;99.90
17370;DHT22;8802;52.402;4.920;2023-12-29T08:16:06;14.00;99.90
17370;DHT22;8802;52.402;4.920;2023-12-29T08:18:33;14.00;99.90
17370;DHT22;8802;52.402;4.920;2023-12-29T08:21:00;14.00;99.90
17370;DHT22;8802;52.402;4.920;2023-12-29T08:23:27;14.00;99.90
17370;DHT22;8802;52.402;4.920;2023-12-29T08:25:56;14.00;99.90
17370;DHT22;8802;52.402;4.920;2023-12-29T08:28:25;14.00;99.90
17370;DHT22;8802;52.402;4.920;2023-12-29T08:30:52;14.00;99.90
17370;DHT22;8802;52.402;4.920;2023-12-29T08:33:19;14.00;99.90
17370;DHT22;8802;52.402;4.920;2023-12-29T08:35:46;14.00;99.90
17370;DHT22;8802;52.402;4.920;2023-12-29T08:38:13;14.00;99.90
17370;DHT22;8802;52.402;4.920;2023-12-29T08:40:40;14.10;99.90
17370;DHT22;8802;52.402;4.920;2023-12-29T08:43:08;14.10;99.90
17370;DHT22;8802;52.402;4.920;2023-12-29T08:45:37;14.10;99.90
17370;DHT22;8802;52.402;4.920;2023-12-29T08:48:05;14.00;99.90
17370;DHT22;8802;52.402;4.920;2023-12-29T08:50:31;14.00;99.90
17370;DHT22;8802;52.402;4.920;2023-12-29T08:52:58;14.00;99.90
17370;DHT22;8802;52.402;4.920;2023-12-29T08:55:25;14.00;99.90
17370;DHT22;8802;52.402;4.920;2023-12-29T08:57:52;14.00;99.90
17370;DHT22;8802;52.402;4.920;2023-12-29T09:00:20;13.90;99.90
17370;DHT22;8802;52.402;4.920;2023-12-29T09:02:48;14.00;99.90
17370;DHT22;8802;52.402;4.920;2023-12-29T09:05:15;14.00;99.90
17370;DHT22;8802;52.402;4.920;2023-12-29T09:07:42;14.00;99.90
17370;DHT22;8802;52.402;4.920;2023-12-29T09:10:09;14.00;99.90
17370;DHT22;8802;52.402;4.920;2023-12-29T09:12:38;14.00;99.90
17370;DHT22;8802;52.402;4.920;2023-12-29T09:15:06;14.00;99.90
17370;DHT22;8802;52.402;4.920;2023-12-29T09:17:33;14.00;99.90
17370;DHT22;8802;52.402;4.920;2023-12-29T09:20:01;14.00;99.90
17370;DHT22;8802;52.402;4.920;2023-12-29T09:22:28;14.00;99.90
17370;DHT22;8802;52.402;4.920;2023-12-29T09:24:55;14.00;99.90
17370;DHT22;8802;52.402;4.920;2023-12-29T09:27:22;14.00;99.90
17370;DHT22;8802;52.402;4.920;2023-12-29T09:29:49;14.00;99.90
17370;DHT22;8802;52.402;4.920;2023-12-29T09:32:16;14.10;99.90
17370;DHT22;8802;52.402;4.920;2023-12-29T09:34:43;14.10;99.90
17370;DHT22;8802;52.402;4.920;2023-12-29T09:37:11;14.10;99.90
17370;DHT22;8802;52.402;4.920;2023-12-29T09:39:39;14.10;99.90
17370;DHT22;8802;52.402;4.920;2023-12-29T09:42:07;14.10;99.90
17370;DHT22;8802;52.402;4.920;2023-12-29T09:44:36;14.10;99.90
17370;DHT22;8802;52.402;4.920;2023-12-29T09:47:03;14.20;99.90
17370;DHT22;8802;52.402;4.920;2023-12-29T09:49:37;14.10;99.90
17370;DHT22;8802;52.402;4.920;2023-12-29T09:52:06;14.10;99.90
17370;DHT22;8802;52.402;4.920;2023-12-29T09:54:35;14.10;99.90
17370;DHT22;8802;52.402;4.920;2023-12-29T09:57:04;14.10;99.90
17370;DHT22;8802;52.402;4.920;2023-12-29T09:59:33;14.10;99.90
17370;DHT22;8802;52.402;4.920;2023-12-29T10:02:03;14.10;99.90
17370;DHT22;8802;52.402;4.920;2023-12-29T10:04:31;14.10;99.90
17370;DHT22;8802;52.402;4.920;2023-12-29T10:07:02;14.10;99.90
17370;DHT22;8802;52.402;4.920;2023-12-29T10:09:31;14.10;99.90
17370;DHT22;8802;52.402;4.920;2023-12-29T10:12:01;14.20;99.90
17370;DHT22;8802;52.402;4.920;2023-12-29T10:14:35;14.20;99.90
17370;DHT22;8802;52.402;4.920;2023-12-29T10:17:11;14.20;99.90
17370;DHT22;8802;52.402;4.920;2023-12-29T10:19:40;14.20;99.90
17370;DHT22;8802;52.402;4.920;2023-12-29T10:22:14;14.20;99.90
17370;DHT22;8802;52.402;4.920;2023-12-29T10:24:42;14.20;99.90
17370;DHT22;8802;52.402;4.920;2023-12-29T10:27:12;14.20;99.90
17370;DHT22;8802;52.402;4.920;2023-12-29T10:29:39;14.20;99.90
17370;DHT22;8802;52.402;4.920;2023-12-29T10:32:06;14.20;99.90
17370;DHT22;8802;52.402;4.920;2023-12-29T10:34:35;14.20;99.90
17370;DHT22;8802;52.402;4.920;2023-12-29T10:37:02;14.20;99.90
17370;DHT22;8802;52.402;4.920;2023-12-29T10:39:34;14.20;99.90
17370;DHT22;8802;52.402;4.920;2023-12-29T10:42:03;14.20;99.90
17370;DHT22;8802;52.402;4.920;2023-12-29T10:44:33;14.20;99.90
17370;DHT22;8802;52.402;4.920;2023-12-29T10:47:07;14.20;99.90
17370;DHT22;8802;52.402;4.920;2023-12-29T10:49:35;14.20;99.90
17370;DHT22;8802;52.402;4.920;2023-12-29T10:52:11;14.20;99.90
17370;DHT22;8802;52.402;4.920;2023-12-29T10:54:39;14.20;99.90
17370;DHT22;8802;52.402;4.920;2023-12-29T10:57:08;14.40;99.90
17370;DHT22;8802;52.402;4.920;2023-12-29T10:59:38;14.20;99.90
17370;DHT22;8802;52.402;4.920;2023-12-29T11:02:05;14.30;99.90
17370;DHT22;8802;52.402;4.920;2023-12-29T11:04:33;14.30;99.90
17370;DHT22;8802;52.402;4.920;2023-12-29T11:07:00;14.40;99.90
17370;DHT22;8802;52.402;4.920;2023-12-29T11:09:28;14.30;99.90
17370;DHT22;8802;52.402;4.920;2023-12-29T11:11:57;14.30;99.90
17370;DHT22;8802;52.402;4.920;2023-12-29T11:14:26;14.30;99.90
17370;DHT22;8802;52.402;4.920;2023-12-29T11:16:55;14.30;99.90
17370;DHT22;8802;52.402;4.920;2023-12-29T11:19:22;14.30;99.90
17370;DHT22;8802;52.402;4.920;2023-12-29T11:21:51;14.40;99.90
17370;DHT22;8802;52.402;4.920;2023-12-29T11:24:18;14.40;99.90
17370;DHT22;8802;52.402;4.920;2023-12-29T11:26:45;14.40;99.90
17370;DHT22;8802;52.402;4.920;2023-12-29T11:29:13;14.40;99.90
17370;DHT22;8802;52.402;4.920;2023-12-29T11:31:40;14.40;99.90
17370;DHT22;8802;52.402;4.920;2023-12-29T11:34:10;14.40;99.90
17370;DHT22;8802;52.402;4.920;2023-12-29T11:36:43;14.40;99.90
17370;DHT22;8802;52.402;4.920;2023-12-29T11:39:20;14.40;99.90
17370;DHT22;8802;52.402;4.920;2023-12-29T11:41:54;14.40;99.90
17370;DHT22;8802;52.402;4.920;2023-12-29T11:44:25;14.40;99.90
17370;DHT22;8802;52.402;4.920;2023-12-29T11:46:52;14.40;99.90
17370;DHT22;8802;52.402;4.920;2023-12-29T11:49:21;14.40;99.90
17370;DHT22;8802;52.402;4.920;2023-12-29T11:51:48;14.40;99.90
17370;DHT22;8802;52.402;4.920;2023-12-29T11:54:22;14.40;99.90
17370;DHT22;8802;52.402;4.920;2023-12-29T11:56:49;14.40;99.90
17370;DHT22;8802;52.402;4.920;2023-12-29T11:59:17;14.40;99.90
17370;DHT22;8802;52.402;4.920;2023-12-29T12:01:46;14.40;99.90
17370;DHT22;8802;52.402;4.920;2023-12-29T12:04:37;14.40;99.90
17370;DHT22;8802;52.402;4.920;2023-12-29T12:07:06;14.40;99.90
17370;DHT22;8802;52.402;4.920;2023-12-29T12:09:34;14.40;99.90
17370;DHT22;8802;52.402;4.920;2023-12-29T12:12:01;14.40;99.90
17370;DHT22;8802;52.402;4.920;2023-12-29T12:14:59;14.40;99.90
17370;DHT22;8802;52.402;4.920;2023-12-29T12:17:29;14.40;99.90
17370;DHT22;8802;52.402;4.920;2023-12-29T12:19:59;14.40;99.90
17370;DHT22;8802;52.402;4.920;2023-12-29T12:22:30;14.40;99.90
17370;DHT22;8802;52.402;4.920;2023-12-29T12:24:57;14.40;99.90
17370;DHT22;8802;52.402;4.920;2023-12-29T12:27:25;14.40;99.90
17370;DHT22;8802;52.402;4.920;2023-12-29T12:29:53;14.40;99.90
17370;DHT22;8802;52.402;4.920;2023-12-29T12:32:23;14.40;99.90
17370;DHT22;8802;52.402;4.920;2023-12-29T12:34:50;14.40;99.90
17370;DHT22;8802;52.402;4.920;2023-12-29T12:37:22;14.30;99.90
17370;DHT22;8802;52.402;4.920;2023-12-29T12:39:50;14.30;99.90
17370;DHT22;8802;52.402;4.920;2023-12-29T12:42:18;14.30;99.90
17370;DHT22;8802;52.402;4.920;2023-12-29T12:44:50;14.30;99.90
17370;DHT22;8802;52.402;4.920;2023-12-29T12:47:26;14.30;99.90
17370;DHT22;8802;52.402;4.920;2023-12-29T12:49:53;14.30;99.90
17370;DHT22;8802;52.402;4.920;2023-12-29T12:52:22;14.30;99.90
17370;DHT22;8802;52.402;4.920;2023-12-29T12:54:49;14.30;99.90
17370;DHT22;8802;52.402;4.920;2023-12-29T12:57:20;14.30;99.90
17370;DHT22;8802;52.402;4.920;2023-12-29T12:59:48;14.30;99.90
17370;DHT22;8802;52.402;4.920;2023-12-29T13:02:16;14.30;99.90
17370;DHT22;8802;52.402;4.920;2023-12-29T13:04:43;14.30;99.90
17370;DHT22;8802;52.402;4.920;2023-12-29T13:07:10;14.30;99.90
17370;DHT22;8802;52.402;4.920;2023-12-29T13:09:39;14.30;99.90
17370;DHT22;8802;52.402;4.920;2023-12-29T13:12:09;14.30;99.90
17370;DHT22;8802;52.402;4.920;2023-12-29T13:14:36;14.30;99.90
17370;DHT22;8802;52.402;4.920;2023-12-29T13:17:07;14.30;99.90
17370;DHT22;8802;52.402;4.920;2023-12-29T13:19:36;14.30;99.90
17370;DHT22;8802;52.402;4.920;2023-12-29T13:22:06;14.30;99.90
17370;DHT22;8802;52.402;4.920;2023-12-29T13:24:34;14.30;99.90
17370;DHT22;8802;52.402;4.920;2023-12-29T13:27:05;14.30;99.90
17370;DHT22;8802;52.402;4.920;2023-12-29T13:29:35;14.30;99.90
17370;DHT22;8802;52.402;4.920;2023-12-29T13:32:05;14.30;99.90
17370;DHT22;8802;52.402;4.920;2023-12-29T13:34:38;14.30;99.90
17370;DHT22;8802;52.402;4.920;2023-12-29T13:37:13;14.30;99.90
17370;DHT22;8802;52.402;4.920;2023-12-29T13:39:50;14.30;99.90
17370;DHT22;8802;52.402;4.920;2023-12-29T13:42:21;14.30;99.90
17370;DHT22;8802;52.402;4.920;2023-12-29T13:44:50;14.30;99.90
17370;DHT22;8802;52.402;4.920;2023-12-29T13:47:17;14.30;99.90
17370;DHT22;8802;52.402;4.920;2023-12-29T13:49:46;14.30;99.90
17370;DHT22;8802;52.402;4.920;2023-12-29T13:52:14;14.30;99.90
17370;DHT22;8802;52.402;4.920;2023-12-29T13:54:42;14.30;99.90
17370;DHT22;8802;52.402;4.920;2023-12-29T13:57:09;14.30;99.90
17370;DHT22;8802;52.402;4.920;2023-12-29T13:59:37;14.30;99.90
17370;DHT22;8802;52.402;4.920;2023-12-29T14:02:19;14.30;99.90
17370;DHT22;8802;52.402;4.920;2023-12-29T14:04:47;14.30;99.90
17370;DHT22;8802;52.402;4.920;2023-12-29T14:07:14;14.30;99.90
17370;DHT22;8802;52.402;4.920;2023-12-29T14:09:46;14.30;99.90
17370;DHT22;8802;52.402;4.920;2023-12-29T14:12:13;14.30;99.90
17370;DHT22;8802;52.402;4.920;2023-12-29T14:14:41;14.30;99.90
17370;DHT22;8802;52.402;4.920;2023-12-29T14:17:08;14.20;99.90
17370;DHT22;8802;52.402;4.920;2023-12-29T14:19:36;14.20;99.90
17370;DHT22;8802;52.402;4.920;2023-12-29T14:22:04;14.20;99.90
17370;DHT22;8802;52.402;4.920;2023-12-29T14:24:31;14.20;99.90
17370;DHT22;8802;52.402;4.920;2023-12-29T14:26:58;14.20;99.90
17370;DHT22;8802;52.402;4.920;2023-12-29T14:29:25;14.20;99.90
17370;DHT22;8802;52.402;4.920;2023-12-29T14:31:54;14.20;99.90
17370;DHT22;8802;52.402;4.920;2023-12-29T14:34:22;14.10;99.90
17370;DHT22;8802;52.402;4.920;2023-12-29T14:36:48;14.10;99.90
17370;DHT22;8802;52.402;4.920;2023-12-29T14:39:15;14.10;99.90
17370;DHT22;8802;52.402;4.920;2023-12-29T14:41:42;14.10;99.90
17370;DHT22;8802;52.402;4.920;2023-12-29T14:44:10;14.00;99.90
17370;DHT22;8802;52.402;4.920;2023-12-29T14:46:38;14.00;99.90
17370;DHT22;8802;52.402;4.920;2023-12-29T14:49:07;13.90;99.90
17370;DHT22;8802;52.402;4.920;2023-12-29T14:51:34;13.90;99.90
17370;DHT22;8802;52.402;4.920;2023-12-29T14:54:01;13.90;99.90
17370;DHT22;8802;52.402;4.920;2023-12-29T14:56:29;13.80;99.90
17370;DHT22;8802;52.402;4.920;2023-12-29T14:58:56;13.70;99.90
17370;DHT22;8802;52.402;4.920;2023-12-29T15:01:23;13.80;99.90
17370;DHT22;8802;52.402;4.920;2023-12-29T15:03:51;13.80;99.90
17370;DHT22;8802;52.402;4.920;2023-12-29T15:06:19;13.80;99.90
17370;DHT22;8802;52.402;4.920;2023-12-29T15:08:46;13.80;99.90
17370;DHT22;8802;52.402;4.920;2023-12-29T15:11:13;13.70;99.90
17370;DHT22;8802;52.402;4.920;2023-12-29T15:13:40;13.70;99.90
17370;DHT22;8802;52.402;4.920;2023-12-29T15:16:08;13.70;99.90
17370;DHT22;8802;52.402;4.920;2023-12-29T15:18:35;13.60;99.90
17370;DHT22;8802;52.402;4.920;2023-12-29T15:21:02;13.60;99.90
17370;DHT22;8802;52.402;4.920;2023-12-29T15:23:31;13.60;99.90
17370;DHT22;8802;52.402;4.920;2023-12-29T15:25:58;13.60;99.90
17370;DHT22;8802;52.402;4.920;2023-12-29T15:28:24;13.50;99.90
17370;DHT22;8802;52.402;4.920;2023-12-29T15:30:51;13.50;99.90
17370;DHT22;8802;52.402;4.920;2023-12-29T15:33:18;13.50;99.90
17370;DHT22;8802;52.402;4.920;2023-12-29T15:35:46;13.40;99.90
17370;DHT22;8802;52.402;4.920;2023-12-29T15:38:12;13.40;99.90
17370;DHT22;8802;52.402;4.920;2023-12-29T15:40:41;13.30;99.90
17370;DHT22;8802;52.402;4.920;2023-12-29T15:43:08;13.30;99.90
17370;DHT22;8802;52.402;4.920;2023-12-29T15:45:34;13.20;99.90
17370;DHT22;8802;52.402;4.920;2023-12-29T15:48:01;13.20;99.90
17370;DHT22;8802;52.402;4.920;2023-12-29T15:50:28;13.10;99.90